createdAt,value
2022-12-27T00:00:34.410Z,6.20
2022-12-27T00:03:37.371Z,6.20
2022-12-27T00:06:42.631Z,6.30
2022-12-27T00:09:45.572Z,6.30
2022-12-27T00:12:48.541Z,5.90
2022-12-27T00:15:51.456Z,6.00
2022-12-27T00:18:54.665Z,6.10
2022-12-27T00:21:59.473Z,5.70
2022-12-27T00:25:02.506Z,5.80
2022-12-27T00:28:05.677Z,5.60
2022-12-27T00:31:09.394Z,5.60
2022-12-27T00:34:18.481Z,5.60
2022-12-27T00:37:22.816Z,5.60
2022-12-27T00:40:25.715Z,5.60
2022-12-27T00:43:28.919Z,5.60
2022-12-27T00:46:31.907Z,5.80
2022-12-27T00:49:34.876Z,5.40
2022-12-27T00:52:39.295Z,5.70
2022-12-27T00:55:44.938Z,5.60
2022-12-27T00:58:48.526Z,5.40
2022-12-27T01:01:51.547Z,5.50
2022-12-27T01:04:55.047Z,5.20
2022-12-27T01:07:59.584Z,5.30
2022-12-27T01:11:02.784Z,5.10
2022-12-27T01:14:07.118Z,5.20
2022-12-27T01:17:10.342Z,5.30
2022-12-27T01:20:13.300Z,5.00
2022-12-27T01:23:18.212Z,5.00
2022-12-27T01:26:24.608Z,5.00
2022-12-27T01:29:27.827Z,4.80
2022-12-27T01:32:33.225Z,4.90
2022-12-27T01:35:36.129Z,4.70
2022-12-27T01:38:42.586Z,5.00
2022-12-27T01:42:04.139Z,5.00
2022-12-27T01:45:15.625Z,4.80
2022-12-27T01:48:22.521Z,4.50
2022-12-27T01:51:25.532Z,4.70
2022-12-27T01:54:29.922Z,4.70
2022-12-27T01:57:32.873Z,4.60
2022-12-27T02:00:36.036Z,4.70
2022-12-27T02:03:41.942Z,4.80
2022-12-27T02:06:45.207Z,4.70
2022-12-27T02:09:55.516Z,4.60
2022-12-27T02:12:59.189Z,4.30
2022-12-27T02:16:02.473Z,4.30
2022-12-27T02:19:06.259Z,4.30
2022-12-27T02:22:58.674Z,4.50
2022-12-27T02:26:32.530Z,4.10
2022-12-27T02:29:52.211Z,4.30
2022-12-27T02:33:01.678Z,4.40
2022-12-27T02:36:08.779Z,4.40
2022-12-27T02:39:14.146Z,4.30
2022-12-27T02:42:36.636Z,4.30
2022-12-27T02:46:04.878Z,4.10
2022-12-27T02:49:41.573Z,4.20
2022-12-27T02:53:05.867Z,4.20
2022-12-27T02:56:41.568Z,4.20
2022-12-27T03:00:21.144Z,4.30
2022-12-27T03:03:44.234Z,4.00
2022-12-27T03:07:02.899Z,4.20
2022-12-27T03:10:34.224Z,4.20
2022-12-27T03:14:01.406Z,4.00
2022-12-27T03:17:09.879Z,3.90
2022-12-27T03:20:36.780Z,3.90
2022-12-27T03:24:00.181Z,3.90
2022-12-27T03:27:09.019Z,4.10
2022-12-27T03:30:30.968Z,4.00
2022-12-27T03:33:35.298Z,4.10
2022-12-27T03:36:57.822Z,4.20
2022-12-27T03:40:08.110Z,4.00
2022-12-27T03:43:13.777Z,4.00
2022-12-27T03:46:35.087Z,3.80
2022-12-27T03:49:42.262Z,3.90
2022-12-27T03:52:50.638Z,4.10
2022-12-27T03:55:54.116Z,4.00
2022-12-27T03:59:00.167Z,3.90
2022-12-27T04:02:03.520Z,4.20
2022-12-27T04:05:07.194Z,4.20
2022-12-27T04:08:29.125Z,4.20
2022-12-27T04:11:49.531Z,4.00
2022-12-27T04:15:10.039Z,4.00
2022-12-27T04:18:30.588Z,3.90
2022-12-27T04:21:51.085Z,4.20
2022-12-27T04:25:12.622Z,3.90
2022-12-27T04:28:33.303Z,4.00
2022-12-27T04:31:53.911Z,4.00
2022-12-27T04:34:56.879Z,4.10
2022-12-27T04:37:59.834Z,3.90
2022-12-27T04:41:21.383Z,4.10
2022-12-27T04:44:42.096Z,3.90
2022-12-27T04:48:02.375Z,3.90
2022-12-27T04:51:23.180Z,4.10
2022-12-27T04:54:43.727Z,4.00
2022-12-27T04:57:47.977Z,3.90
2022-12-27T05:01:13.952Z,4.00
2022-12-27T05:04:17.399Z,3.90
2022-12-27T05:07:37.899Z,3.90
2022-12-27T05:10:58.503Z,4.30
2022-12-27T05:14:04.387Z,4.20
2022-12-27T05:17:07.356Z,4.00
2022-12-27T05:20:11.716Z,4.20
2022-12-27T05:23:31.942Z,4.10
2022-12-27T05:26:36.003Z,4.40
2022-12-27T05:29:40.319Z,4.20
2022-12-27T05:32:43.309Z,4.10
2022-12-27T05:35:46.417Z,4.30
2022-12-27T05:38:49.596Z,4.30
2022-12-27T05:41:52.530Z,4.40
2022-12-27T05:44:56.798Z,4.60
2022-12-27T05:48:00.643Z,4.30
2022-12-27T05:51:06.861Z,4.40
2022-12-27T05:54:09.881Z,4.30
2022-12-27T05:57:12.820Z,4.70
2022-12-27T06:00:17.846Z,4.40
2022-12-27T06:03:21.101Z,4.30
2022-12-27T06:06:24.269Z,4.40
2022-12-27T06:09:27.296Z,4.30
2022-12-27T06:12:30.481Z,4.40
2022-12-27T06:15:34.852Z,4.40
2022-12-27T06:18:39.622Z,4.40
2022-12-27T06:21:42.522Z,4.20
2022-12-27T06:24:45.495Z,4.30
2022-12-27T06:27:48.432Z,4.30
2022-12-27T06:30:52.941Z,4.10
2022-12-27T06:33:56.672Z,4.30
2022-12-27T06:36:59.800Z,4.10
2022-12-27T06:40:02.689Z,4.20
2022-12-27T06:43:05.650Z,4.20
2022-12-27T06:46:17.575Z,4.00
2022-12-27T06:49:21.092Z,4.20
2022-12-27T06:52:24.123Z,4.20
2022-12-27T06:55:27.068Z,4.00
2022-12-27T06:58:30.720Z,4.20
2022-12-27T07:01:35.215Z,4.40
2022-12-27T07:04:39.306Z,4.10
2022-12-27T07:07:42.291Z,4.00
2022-12-27T07:10:45.251Z,4.10
2022-12-27T07:13:49.642Z,4.20
2022-12-27T07:16:54.020Z,4.20
2022-12-27T07:19:56.894Z,4.30
2022-12-27T07:23:00.088Z,4.10
2022-12-27T07:26:04.487Z,4.00
2022-12-27T07:29:07.409Z,4.10
2022-12-27T07:32:11.778Z,4.30
2022-12-27T07:35:14.907Z,4.20
2022-12-27T07:38:17.836Z,4.20
2022-12-27T07:41:21.499Z,4.40
2022-12-27T07:44:24.392Z,4.20
2022-12-27T07:47:28.695Z,4.20
2022-12-27T07:50:31.640Z,4.30
2022-12-27T07:53:34.930Z,4.30
2022-12-27T07:56:37.822Z,4.50
2022-12-27T07:59:40.807Z,4.40
2022-12-27T08:02:46.956Z,4.80
2022-12-27T08:05:52.998Z,4.60
2022-12-27T08:08:57.743Z,4.40
2022-12-27T08:12:00.770Z,4.50
2022-12-27T08:15:04.016Z,4.50
2022-12-27T08:18:08.443Z,4.70
2022-12-27T08:21:11.418Z,4.50
2022-12-27T08:24:14.371Z,4.50
2022-12-27T08:27:22.510Z,4.50
2022-12-27T08:30:25.461Z,4.50
2022-12-27T08:33:30.142Z,4.60
2022-12-27T08:40:02.398Z,4.50
2022-12-27T08:43:05.681Z,4.70
2022-12-27T08:46:09.610Z,4.70
2022-12-27T08:49:14.078Z,4.80
2022-12-27T08:52:17.046Z,4.70
2022-12-27T08:55:19.964Z,4.70
2022-12-27T08:58:22.910Z,4.90
2022-12-27T09:01:26.605Z,4.90
2022-12-27T09:04:31.021Z,5.20
2022-12-27T09:07:34.102Z,4.90
2022-12-27T09:10:37.197Z,4.90
2022-12-27T09:13:40.496Z,4.90
2022-12-27T09:16:43.440Z,5.00
2022-12-27T09:19:47.746Z,4.80
2022-12-27T09:22:51.827Z,5.00
2022-12-27T09:25:54.756Z,5.00
2022-12-27T09:28:58.500Z,5.20
2022-12-27T09:32:01.712Z,5.00
2022-12-27T09:35:06.862Z,4.90
2022-12-27T09:38:09.733Z,4.90
2022-12-27T09:42:11.692Z,5.20
2022-12-27T09:44:50.822Z,4.90
2022-12-27T09:47:57.381Z,5.20
2022-12-27T09:51:06.523Z,5.30
2022-12-27T09:54:15.115Z,5.40
2022-12-27T09:57:22.087Z,5.40
2022-12-27T10:00:35.033Z,5.70
2022-12-27T10:03:38.550Z,5.70
2022-12-27T10:06:57.557Z,5.90
2022-12-27T10:10:09.976Z,6.10
2022-12-27T10:13:25.823Z,6.10
2022-12-27T10:16:33.846Z,6.30
2022-12-27T10:19:45.315Z,6.40
2022-12-27T10:22:53.465Z,6.00
2022-12-27T10:26:00.122Z,6.20
2022-12-27T10:29:12.609Z,6.20
2022-12-27T10:32:17.510Z,6.30
2022-12-27T10:35:22.294Z,6.10
2022-12-27T10:38:32.326Z,6.30
2022-12-27T10:41:44.858Z,6.30
2022-12-27T10:44:47.797Z,6.40
2022-12-27T10:47:50.882Z,6.50
2022-12-27T10:50:57.154Z,6.30
2022-12-27T10:54:04.975Z,6.50
2022-12-27T10:57:19.592Z,6.10
2022-12-27T11:00:24.614Z,6.40
2022-12-27T11:03:28.370Z,6.20
2022-12-27T11:06:31.463Z,6.30
2022-12-27T11:09:36.922Z,6.20
2022-12-27T11:12:39.856Z,6.40
2022-12-27T11:15:45.535Z,6.10
2022-12-27T11:18:53.243Z,6.20
2022-12-27T11:21:57.317Z,6.10
2022-12-27T11:25:01.975Z,6.00
2022-12-27T11:28:07.262Z,6.00
2022-12-27T11:31:12.501Z,6.30
2022-12-27T11:34:19.271Z,6.40
2022-12-27T11:37:25.326Z,6.10
2022-12-27T11:40:34.667Z,6.00
2022-12-27T11:43:44.117Z,6.40
2022-12-27T11:46:58.744Z,6.10
2022-12-27T11:50:15.460Z,6.10
2022-12-27T11:53:55.806Z,6.00
2022-12-27T11:57:16.814Z,6.40
2022-12-27T12:00:22.491Z,6.40
2022-12-27T12:03:58.967Z,6.50
2022-12-27T12:07:08.289Z,6.20
2022-12-27T12:10:21.137Z,6.60
2022-12-27T12:14:03.584Z,6.40
2022-12-27T12:17:22.388Z,6.30
2022-12-27T12:20:52.119Z,6.60
2022-12-27T12:24:20.469Z,6.30
2022-12-27T12:27:32.758Z,6.60
2022-12-27T12:30:58.930Z,6.50
2022-12-27T12:34:16.594Z,6.60
2022-12-27T12:37:31.488Z,6.50
2022-12-27T12:40:56.371Z,6.40
2022-12-27T12:44:41.737Z,6.50
2022-12-27T12:48:08.872Z,6.70
2022-12-27T12:51:26.685Z,6.60
2022-12-27T12:55:05.849Z,7.00
2022-12-27T12:58:18.815Z,6.90
2022-12-27T13:01:50.319Z,6.90
2022-12-27T13:05:12.244Z,6.90
2022-12-27T13:08:24.184Z,6.90
2022-12-27T13:11:42.925Z,7.00
2022-12-27T13:15:08.721Z,7.00
2022-12-27T13:18:29.969Z,7.10
2022-12-27T13:21:52.407Z,7.40
2022-12-27T13:25:07.085Z,7.10
2022-12-27T13:28:29.262Z,7.20
2022-12-27T13:31:41.096Z,6.90
2022-12-27T13:34:54.997Z,6.70
2022-12-27T13:38:13.742Z,6.90
2022-12-27T13:41:32.345Z,7.10
2022-12-27T13:44:45.929Z,7.00
2022-12-27T13:47:59.232Z,6.70
2022-12-27T13:51:17.574Z,6.60
2022-12-27T13:55:09.568Z,6.60
2022-12-27T13:58:52.474Z,6.70
2022-12-27T14:02:33.530Z,6.60
2022-12-27T14:06:17.525Z,6.80
2022-12-27T14:09:51.653Z,6.50
2022-12-27T14:13:04.888Z,6.50
2022-12-27T14:16:33.133Z,6.60
2022-12-27T14:20:17.884Z,6.70
2022-12-27T14:23:49.677Z,6.40
2022-12-27T14:27:37.650Z,6.20
2022-12-27T14:31:09.835Z,6.60
2022-12-27T14:35:00.651Z,6.30
2022-12-27T14:38:41.390Z,6.30
2022-12-27T14:42:10.128Z,6.10
2022-12-27T14:45:58.727Z,6.30
2022-12-27T14:49:42.341Z,6.30
2022-12-27T14:53:22.529Z,6.00
2022-12-27T14:56:33.829Z,6.00
2022-12-27T14:59:48.250Z,6.20
2022-12-27T15:03:20.622Z,5.80
2022-12-27T15:06:53.318Z,6.10
2022-12-27T15:10:05.788Z,5.90
2022-12-27T15:13:15.913Z,5.70
2022-12-27T15:16:29.653Z,5.70
2022-12-27T15:19:48.615Z,6.00
2022-12-27T15:23:04.499Z,5.70
2022-12-27T15:26:18.260Z,5.70
2022-12-27T15:29:36.689Z,5.70
2022-12-27T15:32:53.062Z,5.50
2022-12-27T15:36:03.367Z,5.80
2022-12-27T15:39:49.675Z,5.70
2022-12-27T15:42:58.693Z,5.70
2022-12-27T15:46:17.657Z,5.70
2022-12-27T15:49:39.439Z,5.40
2022-12-27T15:53:05.639Z,5.80
2022-12-27T15:56:38.796Z,5.50
2022-12-27T15:59:46.633Z,5.30
2022-12-27T16:02:55.581Z,5.30
2022-12-27T16:05:59.224Z,5.30
2022-12-27T16:09:23.762Z,5.40
2022-12-27T16:12:40.519Z,5.20
2022-12-27T16:15:52.575Z,5.20
2022-12-27T16:19:18.748Z,5.00
2022-12-27T16:22:33.288Z,4.90
2022-12-27T16:25:38.186Z,5.00
2022-12-27T16:28:51.904Z,4.90
2022-12-27T16:32:16.344Z,5.00
2022-12-27T16:35:19.283Z,4.80
2022-12-27T16:38:23.477Z,4.90
2022-12-27T16:41:41.988Z,4.90
2022-12-27T16:45:03.788Z,5.00
2022-12-27T16:48:18.288Z,4.70
2022-12-27T16:51:33.034Z,4.80
2022-12-27T16:54:49.495Z,5.10
2022-12-27T16:57:52.777Z,4.70
2022-12-27T17:00:58.172Z,4.90
2022-12-27T17:04:02.800Z,4.90
2022-12-27T17:07:06.640Z,4.80
2022-12-27T17:10:34.005Z,4.90
2022-12-27T17:13:43.096Z,4.80
2022-12-27T17:16:51.227Z,4.60
2022-12-27T17:20:01.063Z,4.90
2022-12-27T17:23:05.418Z,4.60
2022-12-27T17:26:21.975Z,4.80
2022-12-27T17:30:06.225Z,4.60
2022-12-27T17:33:28.623Z,4.90
2022-12-27T17:36:46.811Z,4.80
2022-12-27T17:40:06.649Z,4.80
2022-12-27T17:43:40.049Z,4.60
2022-12-27T17:46:53.287Z,4.70
2022-12-27T17:50:00.054Z,4.60
2022-12-27T17:53:31.168Z,4.40
2022-12-27T17:57:02.228Z,4.30
2022-12-27T18:00:07.237Z,4.70
2022-12-27T18:03:14.021Z,4.40
2022-12-27T18:06:21.338Z,4.40
2022-12-27T18:09:35.307Z,4.40
2022-12-27T18:12:40.714Z,4.30
2022-12-27T18:15:46.462Z,4.50
2022-12-27T18:18:51.588Z,4.40
2022-12-27T18:21:58.761Z,4.20
2022-12-27T18:25:01.959Z,4.20
2022-12-27T18:28:06.702Z,4.60
2022-12-27T18:31:16.077Z,4.50
2022-12-27T18:34:26.004Z,4.40
2022-12-27T18:37:30.917Z,4.30
2022-12-27T18:40:35.082Z,4.60
2022-12-27T18:43:43.308Z,4.30
2022-12-27T18:46:50.954Z,4.30
2022-12-27T18:49:56.565Z,4.20
2022-12-27T18:53:03.875Z,4.20
2022-12-27T18:56:08.642Z,4.30
2022-12-27T18:59:25.400Z,4.20
2022-12-27T19:02:35.455Z,4.10
2022-12-27T19:05:38.656Z,4.20
2022-12-27T19:08:49.950Z,4.30
2022-12-27T19:11:55.170Z,3.80
2022-12-27T19:14:58.435Z,3.80
2022-12-27T19:18:05.611Z,4.00
2022-12-27T19:21:08.760Z,3.90
2022-12-27T19:24:33.982Z,3.80
2022-12-27T19:27:36.984Z,3.90
2022-12-27T19:30:43.846Z,3.70
2022-12-27T19:33:50.982Z,3.60
2022-12-27T19:36:55.288Z,3.70
2022-12-27T19:40:00.058Z,3.50
2022-12-27T19:43:03.062Z,3.60
2022-12-27T19:46:06.534Z,3.60
2022-12-27T19:52:32.544Z,3.50
2022-12-27T19:55:37.631Z,3.70
2022-12-27T19:58:40.558Z,3.40
2022-12-27T20:01:45.427Z,3.60
2022-12-27T20:04:48.552Z,3.50
2022-12-27T20:07:51.501Z,3.50
2022-12-27T20:10:56.785Z,3.50
2022-12-27T20:14:00.138Z,3.60
2022-12-27T20:17:03.421Z,3.50
2022-12-27T20:20:07.615Z,3.40
2022-12-27T20:23:10.836Z,3.70
2022-12-27T20:26:19.834Z,3.70
2022-12-27T20:29:23.231Z,3.70
2022-12-27T20:32:26.181Z,3.80
2022-12-27T20:35:29.604Z,3.70
2022-12-27T20:38:33.240Z,3.70
2022-12-27T20:41:38.086Z,3.60
2022-12-27T20:44:41.077Z,3.90
2022-12-27T20:47:44.336Z,3.80
2022-12-27T20:50:47.303Z,3.70
2022-12-27T20:53:54.405Z,4.00
2022-12-27T20:56:58.805Z,4.00
2022-12-27T21:00:01.762Z,4.00
2022-12-27T21:03:04.881Z,3.90
2022-12-27T21:06:10.000Z,3.90
2022-12-27T21:09:12.962Z,4.20
2022-12-27T21:12:17.330Z,3.90
2022-12-27T21:15:20.294Z,4.10
2022-12-27T21:18:23.381Z,4.00
2022-12-27T21:21:28.858Z,4.10
2022-12-27T21:24:33.040Z,4.20
2022-12-27T21:27:37.387Z,4.20
2022-12-27T21:30:40.352Z,4.10
2022-12-27T21:33:43.332Z,4.20
2022-12-27T21:36:46.382Z,4.10
2022-12-27T21:39:49.338Z,4.20
2022-12-27T21:42:54.867Z,4.20
2022-12-27T21:45:58.264Z,4.10
2022-12-27T21:49:03.900Z,4.20
2022-12-27T21:52:06.853Z,4.00
2022-12-27T21:55:10.647Z,4.30
2022-12-27T21:58:14.885Z,4.40
2022-12-27T22:01:20.307Z,4.40
2022-12-27T22:04:23.269Z,4.30
2022-12-27T22:07:26.182Z,4.20
2022-12-27T22:10:29.167Z,4.50
2022-12-27T22:13:33.711Z,4.50
2022-12-27T22:16:38.635Z,4.40
2022-12-27T22:19:41.598Z,4.00
2022-12-27T22:22:44.583Z,4.50
2022-12-27T22:25:47.537Z,4.40
2022-12-27T22:28:51.894Z,4.10
2022-12-27T22:31:54.793Z,4.30
2022-12-27T22:34:57.725Z,4.30
2022-12-27T22:38:00.769Z,4.30
2022-12-27T22:41:07.618Z,4.30
2022-12-27T22:44:14.797Z,4.40
2022-12-27T22:47:26.771Z,4.20
2022-12-27T22:50:30.775Z,4.40
2022-12-27T22:53:33.664Z,4.50
2022-12-27T22:56:38.966Z,4.40
2022-12-27T22:59:43.432Z,4.50
2022-12-27T23:02:46.451Z,4.40
2022-12-27T23:05:58.144Z,4.50
2022-12-27T23:09:01.301Z,4.40
2022-12-27T23:12:04.458Z,4.30
2022-12-27T23:15:10.231Z,4.30
2022-12-27T23:18:13.104Z,4.30
2022-12-27T23:21:20.135Z,4.30
2022-12-27T23:24:26.988Z,4.40
2022-12-27T23:27:29.963Z,4.30
2022-12-27T23:30:34.307Z,4.30
2022-12-27T23:33:37.580Z,4.40
2022-12-27T23:36:41.009Z,4.50
2022-12-27T23:39:43.896Z,4.40
2022-12-27T23:42:46.851Z,4.40
2022-12-27T23:45:51.350Z,4.60
2022-12-27T23:48:54.721Z,4.70
2022-12-27T23:51:57.674Z,4.60
2022-12-27T23:55:00.882Z,4.60
2022-12-27T23:58:03.835Z,4.70
